Flight Track Log - Related Links

Times and Time Zones

All times are in EDT time to prevent confusion due to time zone crossing. See the SWA3121 flight status page for this flight to view local times or setup timezone preferences in your user account.


Time Position Orientation Groundspeed Altitude Reporting Facility
EDT Latitude Longitude Course Direction KTS MPH feet Rate Location/Type
Fri 01:36:20 PM 27.9667 -82.5500 196° South 157 181 1,200  Level Tampa TRACON
Fri 01:37:15 PM 27.9167 -82.5667 196° South 216 249 3,200 2,613 Climbing Tampa TRACON
Fri 01:39:03 PM 27.8994 -82.6461 256° West 187 215 8,300 3,071 Climbing Jacksonville Center
Fri 01:40:03 PM 27.9828 -82.6342 North 152 175 11,800 3,150 Climbing Jacksonville Center
Fri 01:41:03 PM 28.0808 -82.6219 North 260 299 14,600 2,850 Climbing Jacksonville Center
Fri 01:42:03 PM 28.1850 -82.6078 North 336 387 17,500 2,700 Climbing Jacksonville Center
Fri 01:43:03 PM 28.2997 -82.5931 North 372 428 20,000 2,700 Climbing Jacksonville Center
Fri 01:44:03 PM 28.4186 -82.5833 North 408 470 22,900 2,700 Climbing Jacksonville Center
Fri 01:45:03 PM 28.5419 -82.5853 359° North 428 493 25,400 2,300 Climbing Jacksonville Center
Fri 01:46:03 PM 28.6714 -82.5897 358° North 439 505 27,500 2,300 Climbing Jacksonville Center
Fri 01:47:03 PM 28.7819 -82.6036 354° North 444 511 30,000 2,550 Climbing Jacksonville Center
Fri 01:48:03 PM 28.9031 -82.6222 352° North 444 511 32,600 2,650 Climbing Jacksonville Center
Fri 01:49:03 PM 29.0219 -82.6361 354° North 439 505 35,300 1,700 Climbing Jacksonville Center
Fri 01:50:03 PM 29.1369 -82.6547 352° North 427 491 36,000 350 Climbing Jacksonville Center
Fri 01:51:03 PM 29.2517 -82.6689 354° North 422 486 36,000  Level Jacksonville Center
Fri 01:52:03 PM 29.3728 -82.6853 353° North 422 486 36,000  Level Jacksonville Center
Fri 01:53:03 PM 29.5044 -82.6969 356° North 428 493 36,000  Level Jacksonville Center
Fri 01:54:03 PM 29.6233 -82.6942 North 429 494 36,000  Level Jacksonville Center
Fri 01:55:03 PM 29.7342 -82.7347 342° North 407 468 36,000 900 Level Jacksonville Center
Fri 01:56:03 PM 29.8447 -82.7753 342° North 426 490 37,800 1,700 Climbing Jacksonville Center
Fri 01:57:03 PM 29.9511 -82.8158 342° North 408 470 39,400 1,350 Climbing Jacksonville Center
Fri 01:58:03 PM 30.0514 -82.8444 346° North 401 461 40,500 800 Climbing Jacksonville Center
Fri 01:59:03 PM 30.1664 -82.8061 16° North 401 461 41,000 250 Climbing Jacksonville Center
Fri 02:00:03 PM 30.2789 -82.7531 22° Northeast 409 471 41,000  Level Jacksonville Center
Fri 02:01:03 PM 30.3917 -82.7000 22° Northeast 424 488 41,000  Level Jacksonville Center
Fri 02:02:03 PM 30.5042 -82.6492 21° North 429 494 41,000  Level Jacksonville Center
Fri 02:03:03 PM 30.6253 -82.5956 21° North 429 494 41,000  Level Jacksonville Center
Fri 02:04:03 PM 30.7378 -82.5422 22° Northeast 429 494 41,000  Level Jacksonville Center
Fri 02:05:03 PM 30.8275 -82.5031 21° North 434 499 41,000  Level Jacksonville Center
Fri 02:06:03 PM 30.9506 -82.4444 22° Northeast 429 494 41,000  Level Jacksonville Center
Fri 02:07:03 PM 31.0631 -82.3931 21° North 429 494 41,000  Level Jacksonville Center
Fri 02:08:03 PM 31.1736 -82.3439 21° North 429 494 41,000  Level Jacksonville Center
Fri 02:09:03 PM 31.2839 -82.2922 22° Northeast 429 494 41,000  Level Jacksonville Center
Fri 02:10:03 PM 31.3944 -82.2428 21° North 429 494 41,000  Level Jacksonville Center
Fri 02:11:03 PM 31.5028 -82.1908 22° Northeast 424 488 41,000  Level Jacksonville Center
Fri 02:12:03 PM 31.6131 -82.1411 21° North 424 488 41,000  Level Jacksonville Center
Fri 02:13:03 PM 31.7317 -82.0792 24° Northeast 418 481 41,000  Level Jacksonville Center
Fri 02:14:03 PM 31.8419 -82.0267 22° Northeast 418 481 41,000  Level Jacksonville Center
Fri 02:15:03 PM 31.9419 -81.9819 21° North 418 481 41,000  Level Jacksonville Center
Fri 02:16:03 PM 32.0606 -81.9242 22° Northeast 418 481 41,000  Level Jacksonville Center
Fri 02:17:03 PM 32.1603 -81.8792 21° North 418 481 41,000  Level Jacksonville Center
Fri 02:18:03 PM 32.2831 -81.8211 22° Northeast 413 475 41,000  Level Jacksonville Center
Fri 02:19:03 PM 32.3869 -81.7536 29° Northeast 424 488 41,000  Level Jacksonville Center
Fri 02:20:03 PM 32.4822 -81.6908 29° Northeast 429 494 41,000  Level Jacksonville Center
Fri 02:21:03 PM 32.5964 -81.6103 31° Northeast 435 501 41,000  Level Jacksonville Center
Fri 02:22:03 PM 32.6958 -81.5422 30° Northeast 440 506 41,000 -450 Level Jacksonville Center
Fri 02:23:03 PM 32.8014 -81.4689 30° Northeast 440 506 40,100 -950 Descending Jacksonville Center
Fri 02:24:03 PM 32.9050 -81.3981 30° Northeast 435 501 39,100 -950 Descending Jacksonville Center
Fri 02:25:03 PM 33.0128 -81.3219 31° Northeast 435 501 38,200 -950 Descending Jacksonville Center
Fri 02:26:03 PM 33.1203 -81.2483 30° Northeast 440 506 37,200 -950 Descending Jacksonville Center
Fri 02:27:03 PM 33.2258 -81.1742 30° Northeast 440 506 36,300 -950 Descending Jacksonville Center
Fri 02:28:03 PM 33.3311 -81.1000 30° Northeast 440 506 35,300 -1,000 Descending Jacksonville Center
Fri 02:29:03 PM 33.4428 -81.0233 30° Northeast 440 506 34,300 -950 Descending Jacksonville Center
Fri 02:30:03 PM 33.5503 -80.9486 30° Northeast 440 506 33,400 -950 Descending Jacksonville Center
Fri 02:31:03 PM 33.6511 -80.8642 35° Northeast 440 506 32,400 -1,000 Descending Jacksonville Center
Fri 02:32:03 PM 33.7583 -80.7817 33° Northeast 446 513 31,400 -700 Descending Jacksonville Center
Fri 02:33:03 PM 33.8631 -80.6942 35° Northeast 446 513 31,000 -550 Descending Jacksonville Center
Fri 02:34:03 PM 33.9681 -80.6114 33° Northeast 451 519 30,300 -500 Descending Jacksonville Center
Fri 02:35:03 PM 34.0731 -80.5258 34° Northeast 451 519 30,000 -347 Descending Jacksonville Center
Fri 02:36:04 PM 34.1881 -80.4350 33° Northeast 451 519 29,600 -700 Descending Jacksonville Center
Fri 02:37:03 PM 34.2947 -80.3464 34° Northeast 451 519 28,600 -958 Descending Jacksonville Center
Fri 02:38:03 PM 34.3994 -80.2578 35° Northeast 451 519 27,700 -1,311 Descending Jacksonville Center
Fri 02:40:06 PM 34.6044 -80.0933 33° Northeast 456 525 24,600 -1,541 Descending Washington Center
Fri 02:41:06 PM 34.6819 -80.0294 34° Northeast 439 505 23,000 -793 Descending Washington Center
Fri 02:42:07 PM 34.7939 -79.9394 33° Northeast 439 505 23,000  Level Washington Center
Fri 02:43:05 PM 34.8950 -79.8564 34° Northeast 434 499 23,000 -252 Level Washington Center
Fri 02:44:06 PM 34.9936 -79.7753 34° Northeast 428 493 22,500 -1,488 Descending Washington Center
Fri 02:45:06 PM 35.0883 -79.6964 34° Northeast 423 487 20,000 -2,450 Descending Washington Center
Fri 02:46:06 PM 35.1892 -79.6100 35° Northeast 412 474 17,600 -2,810 Descending Washington Center
Fri 02:46:25 PM 35.2192 -79.5936 24° Northeast 409 471 16,300 -3,049 Descending Washington Center
Fri 02:47:07 PM 35.2833 -79.5436 32° Northeast 400 460 14,500 -2,176 Descending Washington Center
Fri 02:48:07 PM 35.3772 -79.4769 30° Northeast 384 442 12,600 -1,361 Descending Washington Center
Fri 02:49:06 PM 35.4478 -79.4292 29° Northeast 347 399 11,800 -1,261 Descending Washington Center
Fri 02:50:06 PM 35.5231 -79.3589 37° Northeast 312 359 10,100 -1,537 Descending Washington Center
Fri 02:51:07 PM 35.5669 -79.2844 54° Northeast 298 343 8,700 -1,523 Descending Washington Center
Fri 02:52:16 PM 35.6183 -79.1794 59° Northeast 285 328 6,800 -1,576 Descending Washington Center
Fri 02:53:05 PM 35.6492 -79.1169 59° Northeast 280 322 5,600 -1,145 Descending Washington Center
Fri 02:54:06 PM 35.6914 -79.0369 57° Northeast 270 311 4,700 -835 Descending Washington Center
Fri 02:54:24 PM 35.7022 -79.0144 59° Northeast 251 289 4,500 -500 Descending Washington Center
Fri 02:55:06 PM 35.7267 -78.9694 56° Northeast 249 287 4,200 -700 Descending Washington Center
Fri 02:55:24 PM 35.7375 -78.9569 43° Northeast 208 239 3,800 -1,082 Descending Washington Center
Fri 02:56:07 PM 35.7697 -78.9175 45° Northeast 228 262 3,100 -1,164 Descending Washington Center
Fri 02:56:31 PM 35.7850 -78.8950 50° Northeast 216 249 2,500 -1,133 Descending Washington Center
Fri 02:57:37 PM 35.8281 -78.8431 44° Northeast 189 217 1,400 -939 Descending Washington Center
Fri 02:58:26 PM 35.8519 -78.8133 45° Northeast 135 155 700 -857 Descending Washington Center
Fri 03:00:00 PM 35.8667 -78.7833 51° Northeast  Level FlightAware Approximate

Login

Don't have an account? Register now (free) for customized features, flight alerts, and more!